UA4327 / N27152 7700 Squawk Report (17th of January, 2021)

Aircraft E145 Reg No. N27152 Age N/A
Model ERJ-145 Jet engines 2 First flight 11-03
Registered 21-03-19 Rollout 10-03 Delivered 14-11-03
Construction No. 145759 Line No. N/A Series XR
ADSHEX A2AD55 Airline name United Express Owner CommutAir
Airfield based Newark-Liberty International~NJ~N First tracked N/A

Flight history for N27152

Route Flight No Date Playback
Brownsville South Padre Island Intl (BRO) - George Bush Intercontinental (IAH) UA4276 2021-03-02 18:20:00
George Bush Intercontinental (IAH) - Brownsville South Padre Island Intl (BRO) UA4292 2021-03-02 18:39:00
Shreveport Rgnl (SHV) - George Bush Intercontinental (IAH) UA4333 2021-03-02 14:41:00
George Bush Intercontinental (IAH) - Shreveport Rgnl (SHV) UA4813 2021-03-02 02:37:00
Valley Intl (HRL) - George Bush Intercontinental (IAH) UA4284 2021-03-01 23:54:00
George Bush Intercontinental (IAH) - Valley Intl (HRL) UA4300 2021-03-01 21:46:00
Lafayette Rgnl (LFT) - George Bush Intercontinental (IAH) UA4873 2021-03-01 16:37:00
George Bush Intercontinental (IAH) - Lafayette Rgnl (LFT) UA4326 2021-02-28 23:10:00
Easterwood Fld (CLL) - George Bush Intercontinental (IAH) UA4907 2021-02-28 21:47:00
George Bush Intercontinental (IAH) - Easterwood Fld (CLL) UA4912 2021-02-28 19:08:00
Baton Rouge Metropolitan (BTR) - George Bush Intercontinental (IAH) N/A 2021-02-28 16:53:00
George Bush Intercontinental (IAH) - Baton Rouge Metropolitan (BTR) UA4294 2021-02-27 21:35:00
Adams Fld (LIT) - George Bush Intercontinental (IAH) UA4360 2021-02-27 19:38:00
George Bush Intercontinental (IAH) - Adams Fld (LIT) UA4327 2021-02-27 18:23:00
Easterwood Fld (CLL) - George Bush Intercontinental (IAH) UA4907 2021-02-26 21:29:00
George Bush Intercontinental (IAH) - Easterwood Fld (CLL) UA4912 2021-02-26 18:58:00
Corpus Christi Intl (CRP) - George Bush Intercontinental (IAH) UA4894 2021-02-26 16:24:00
George Bush Intercontinental (IAH) - Corpus Christi Intl (CRP) UA4858 2021-02-26 03:01:00
Mc Allen Miller Intl (MFE) - George Bush Intercontinental (IAH) C54864 2021-02-26 00:12:00
George Bush Intercontinental (IAH) - Mc Allen Miller Intl (MFE) UA4831 2021-02-25 23:16:00
Time Lat Lon Altitude Heading Speed Vertical Rate
2021-01-17 17:12:27 GMT 34.738888 -92.196388 400 225 136
2021-01-17 17:11:52 GMT 34.748890 -92.184166 700 229 135
2021-01-17 17:11:26 GMT 34.764168 -92.162781 1,200 216 137
2021-01-17 17:10:57 GMT 34.773888 -92.153893 1,500 242 135
2021-01-17 17:10:25 GMT 34.785557 -92.126114 2,000 284 137
2021-01-17 17:09:57 GMT 34.782223 -92.110832 2,000 284 123
2021-01-17 17:09:24 GMT 34.775555 -92.078613 2,000 310 189
2021-01-17 17:08:50 GMT 34.761112 -92.057777 2,000 15 190
2021-01-17 17:08:23 GMT 34.735832 -92.066109 2,000 35 202
2021-01-17 17:07:50 GMT 34.713333 -92.085556 2,000 39 200
2021-01-17 17:07:22 GMT 34.691387 -92.107498 2,000 38 207
2021-01-17 17:06:49 GMT 34.669445 -92.128609 2,000 36 220
2021-01-17 17:06:21 GMT 34.645000 -92.150558 2,000 37 229
2021-01-17 17:05:48 GMT 34.619446 -92.174164 2,300 38 230
2021-01-17 17:05:20 GMT 34.594166 -92.198334 2,800 38 229
2021-01-17 17:04:48 GMT 34.569443 -92.221947 3,400 39 227
2021-01-17 17:04:19 GMT 34.545555 -92.245834 3,900 39 230
2021-01-17 17:03:47 GMT 34.519169 -92.272499 4,400 40 230
2021-01-17 17:03:18 GMT 34.496387 -92.296112 4,900 40 237
2021-01-17 17:02:53 GMT 34.475277 -92.317780 5,000 40 240
2021-01-17 17:02:29 GMT 34.446388 -92.347504 5,000 37 238
2021-01-17 17:02:17 GMT 34.437222 -92.356110 5,000 40 238
2021-01-17 17:01:52 GMT 34.423058 -92.370560 5,000 39 240
2021-01-17 17:01:28 GMT 34.394169 -92.399719 5,000 39 237
2021-01-17 17:00:52 GMT 34.370834 -92.423332 5,000 40 235
2021-01-17 17:00:27 GMT 34.345001 -92.449722 5,000 40 238
2021-01-17 17:00:15 GMT 34.335278 -92.459724 5,000 42 237
2021-01-17 16:59:51 GMT 34.322777 -92.473610 5,000 38 235
2021-01-17 16:59:26 GMT 34.295834 -92.500000 5,000 39 242
2021-01-17 16:59:14 GMT 34.285557 -92.510277 5,000 49 245
2021-01-17 16:58:50 GMT 34.272499 -92.528610 5,000 48 248
2021-01-17 16:58:25 GMT 34.249722 -92.560280 5,000 49 245
2021-01-17 16:58:13 GMT 34.240276 -92.573891 5,000 54 241
2021-01-17 16:57:56 GMT 34.232777 -92.586388 5,000 30 235
2021-01-17 16:57:24 GMT 34.199444 -92.610275 5,500 30 238
2021-01-17 16:56:55 GMT 34.176388 -92.626389 5,900 31 236
2021-01-17 16:56:23 GMT 34.143333 -92.650558 6,500 31 239
2021-01-17 16:56:11 GMT 34.131390 -92.659447 6,700 28 238
2021-01-17 16:55:48 GMT 34.113609 -92.671112 7,000 30 241
2021-01-17 16:55:22 GMT 34.085278 -92.692497 7,700 30 250
2021-01-17 16:55:10 GMT 34.074165 -92.700554 7,900 30 251
2021-01-17 16:54:48 GMT 34.055000 -92.713333 8,000 31 251
2021-01-17 16:54:21 GMT 34.026112 -92.735001 8,000 30 251
2021-01-17 16:54:09 GMT 34.014442 -92.743614 8,000 30 251
2021-01-17 16:53:41 GMT 33.987778 -92.763054 8,000 30 251
2021-01-17 16:53:20 GMT 33.967220 -92.777222 8,000 30 250
2021-01-17 16:52:19 GMT 33.893890 -92.830002 8,000 30 250
2021-01-17 16:52:07 GMT 33.895279 -92.828888 8,000 30 250
2021-01-17 16:51:18 GMT 33.834442 -92.872223 8,000 30 249
2021-01-17 16:51:06 GMT 33.822224 -92.881111 8,000 30 249
2021-01-17 16:50:17 GMT 33.774445 -92.915001 8,000 30 248
2021-01-17 16:49:16 GMT 33.715279 -92.957222 8,000 30 248
2021-01-17 16:49:05 GMT 33.703056 -92.966110 8,000 30 248
2021-01-17 16:48:15 GMT 33.655834 -92.999443 8,000 30 248
2021-01-17 16:47:15 GMT 33.596390 -93.041946 7,900 30 247
2021-01-17 16:47:03 GMT 33.583611 -93.050835 7,900 30 247
2021-01-17 16:46:14 GMT 33.538055 -93.083054 7,900 30 247
2021-01-17 16:46:02 GMT 33.526112 -93.091667 7,900 30 249
2021-01-17 16:45:13 GMT 33.479168 -93.124725 7,900 30 251
2021-01-17 16:45:01 GMT 33.466389 -93.133888 8,000 30 251
2021-01-17 16:44:12 GMT 33.418610 -93.167778 8,000 30 250
2021-01-17 16:44:00 GMT 33.406666 -93.176392 8,100 30 249
2021-01-17 16:43:11 GMT 33.359444 -93.209442 7,900 30 249
We lost coverage of the aircraft here for a total of 6 minutes
2021-01-17 16:37:14 GMT 33.010517 -93.452232 7,825 32 247 0
2021-01-17 16:37:10 GMT 33.006821 -93.454979 7,825 32 248 -64
2021-01-17 16:36:15 GMT 32.952885 -93.495392 7,800 31 240 256
2021-01-17 16:35:19 GMT 32.896091 -93.535973 7,825 31 252 64
2021-01-17 16:35:15 GMT 32.893253 -93.538048 7,825 31 252 64
2021-01-17 16:35:06 GMT 32.883087 -93.545456 7,825 31 251 -64
2021-01-17 16:34:53 GMT 32.871094 -93.554024 7,825 31 252 0
2021-01-17 16:34:45 GMT 32.862110 -93.560471 7,825 30 251 -64
2021-01-17 16:34:29 GMT 32.847260 -93.571007 7,825 30 251 64
2021-01-17 16:34:23 GMT 32.840240 -93.575996 7,825 31 251 0
2021-01-17 16:34:10 GMT 32.828125 -93.584625 7,850 30 251 -64
2021-01-17 16:34:00 GMT 32.817032 -93.592422 7,825 30 251 64
2021-01-17 16:33:48 GMT 32.805687 -93.600380 7,825 30 251 -128
2021-01-17 16:33:42 GMT 32.798889 -93.605141 7,825 30 251 64
2021-01-17 16:33:31 GMT 32.788559 -93.612251 7,825 29 251 -64
2021-01-17 16:33:21 GMT 32.777851 -93.619545 7,825 29 252 128
2021-01-17 16:33:10 GMT 32.767281 -93.626778 7,825 30 253 0
2021-01-17 16:33:00 GMT 32.756714 -93.633949 7,825 29 252 0
2021-01-17 16:32:48 GMT 32.745312 -93.641579 7,825 29 253 0
2021-01-17 16:32:38 GMT 32.735489 -93.648247 7,825 29 253 -64
2021-01-17 16:32:28 GMT 32.724407 -93.655647 7,825 29 253 0
2021-01-17 16:32:17 GMT 32.714035 -93.662460 7,825 28 253 64
2021-01-17 16:32:08 GMT 32.703186 -93.669540 7,825 28 254 -64
2021-01-17 16:31:56 GMT 32.692242 -93.676666 7,825 28 255 0
2021-01-17 16:31:46 GMT 32.681438 -93.683670 7,825 28 255 -64
2021-01-17 16:31:36 GMT 32.669476 -93.691406 7,825 28 255 0
2021-01-17 16:31:26 GMT 32.660213 -93.697350 7,825 28 255 0
2021-01-17 16:31:15 GMT 32.648712 -93.704590 7,825 27 255 64
2021-01-17 16:31:05 GMT 32.638229 -93.711075 7,825 27 255 -64
2021-01-17 16:30:54 GMT 32.627533 -93.717804 7,825 27 255 0
2021-01-17 16:30:45 GMT 32.616440 -93.724693 7,825 27 256 -64
2021-01-17 16:30:33 GMT 32.605499 -93.731453 7,825 27 255 -64
2021-01-17 16:30:24 GMT 32.594807 -93.738098 7,850 27 255 0
2021-01-17 16:30:13 GMT 32.584122 -93.744743 7,850 27 255 64
2021-01-17 16:30:02 GMT 32.573112 -93.751663 7,825 27 255 64
2021-01-17 16:29:53 GMT 32.560638 -93.759468 7,825 27 256 -64
2021-01-17 16:29:41 GMT 32.549465 -93.766403 7,825 27 256 64
2021-01-17 16:29:29 GMT 32.538300 -93.773308 7,825 27 257 -64
2021-01-17 16:29:20 GMT 32.527493 -93.779968 7,825 27 257 -64
2021-01-17 16:29:08 GMT 32.516087 -93.787086 7,825 28 258 -64
2021-01-17 16:28:59 GMT 32.504883 -93.794128 7,825 27 258 0
2021-01-17 16:28:47 GMT 32.493851 -93.800995 7,825 27 258 0
2021-01-17 16:28:38 GMT 32.482269 -93.807915 7,825 27 259 0
2021-01-17 16:28:27 GMT 32.471302 -93.814552 7,825 27 260 0
2021-01-17 16:28:17 GMT 32.460342 -93.821213 7,825 27 261 0
2021-01-17 16:28:04 GMT 32.447525 -93.829010 7,825 27 262 0
2021-01-17 16:27:56 GMT 32.437225 -93.835236 7,850 27 261 -192
2021-01-17 16:27:45 GMT 32.426193 -93.841812 7,900 26 262 -320
2021-01-17 16:27:33 GMT 32.413300 -93.849419 8,025 26 266 -1344
2021-01-17 16:27:24 GMT 32.403103 -93.855530 8,250 27 266 -1408
2021-01-17 16:27:13 GMT 32.391861 -93.862411 8,475 27 268 -1280
2021-01-17 16:27:04 GMT 32.380432 -93.869713 8,700 28 260 -1280
2021-01-17 16:26:52 GMT 32.369492 -93.876663 8,900 28 256 -1024
2021-01-17 16:26:43 GMT 32.358490 -93.883942 9,050 30 258 -576
2021-01-17 16:26:31 GMT 32.347733 -93.891190 9,125 28 254 -704
2021-01-17 16:26:21 GMT 32.336838 -93.898224 9,325 29 237 -1792
2021-01-17 16:26:10 GMT 32.327316 -93.904518 9,625 29 231 -1792
2021-01-17 16:26:01 GMT 32.317200 -93.911186 9,900 28 242 -1728
2021-01-17 16:25:49 GMT 32.306305 -93.918274 10,200 29 256 -1280
2021-01-17 16:25:40 GMT 32.296173 -93.924980 10,575 29 253 -3712
2021-01-17 16:25:32 GMT 32.288177 -93.930252 11,100 29 253 -4224
2021-01-17 16:25:29 GMT 32.285339 -93.932114 11,325 29 250 -4800
2021-01-17 16:25:23 GMT 32.280075 -93.935577 11,725 29 248 -4416
2021-01-17 16:25:19 GMT 32.274857 -93.939095 12,050 29 252 -3456
2021-01-17 16:25:13 GMT 32.269733 -93.942467 12,300 29 255 -3328
2021-01-17 16:25:08 GMT 32.263779 -93.946342 12,625 29 260 -3520
2021-01-17 16:25:03 GMT 32.259018 -93.949478 12,875 28 262 -3648
2021-01-17 16:24:58 GMT 32.252789 -93.953453 13,250 28 265 -3904
2021-01-17 16:24:53 GMT 32.248215 -93.956284 13,525 28 270 -3968
2021-01-17 16:24:47 GMT 32.241100 -93.960907 13,925 29 273 -3776
2021-01-17 16:24:44 GMT 32.237183 -93.963486 14,150 30 278 -4032
2021-01-17 16:24:37 GMT 32.229465 -93.968811 14,600 31 284 -3584
2021-01-17 16:24:31 GMT 32.224388 -93.972450 14,900 31 288 -4416
2021-01-17 16:24:26 GMT 32.217594 -93.977608 15,350 33 293 -4992
2021-01-17 16:24:16 GMT 32.206146 -93.986992 16,175 35 300 -4544
2021-01-17 16:24:07 GMT 32.195892 -93.995346 16,775 34 305 -3776
2021-01-17 16:24:04 GMT 32.193295 -93.997398 16,975 34 307 -3136
2021-01-17 16:23:55 GMT 32.180832 -94.006935 17,500 32 323 -3456
2021-01-17 16:23:50 GMT 32.175930 -94.010513 17,725 31 328 -3712
2021-01-17 16:23:44 GMT 32.167503 -94.016571 18,150 30 339 -4608
2021-01-17 16:23:41 GMT 32.162338 -94.020172 18,450 30 343 -5248
2021-01-17 16:23:34 GMT 32.152744 -94.026772 19,100 29 344 -6016
2021-01-17 16:23:30 GMT 32.148277 -94.029739 19,450 29 343 -6720
2021-01-17 16:23:22 GMT 32.137756 -94.036636 20,350 29 339 -7552
2021-01-17 16:23:19 GMT 32.133636 -94.039345 21,175 29 337 -7232
2021-01-17 16:23:13 GMT 32.124390 -94.045494 21,600 30 333 -7616
2021-01-17 16:23:09 GMT 32.119080 -94.049179 22,925 31 321 -8320
2021-01-17 16:23:05 GMT 32.113907 -94.052803 22,675 31 323 -8576
2021-01-17 16:23:02 GMT 32.110336 -94.055328 23,075 31 320 -7936
2021-01-17 16:22:59 GMT 32.106308 -94.058243 23,700 31 316 -6656
2021-01-17 16:22:55 GMT 32.100048 -94.062813 24,050 31 316 -5760
2021-01-17 16:22:51 GMT 32.097534 -94.064606 24,250 31 316 -5824
2021-01-17 16:22:47 GMT 32.091293 -94.069061 24,725 31 316 -5440
2021-01-17 16:22:41 GMT 32.084198 -94.074005 25,200 30 319 -5184
2021-01-17 16:22:37 GMT 32.079620 -94.077133 26,450 30 323 -4416
2021-01-17 16:22:32 GMT 32.072342 -94.082138 25,900 30 331 -3776
2021-01-17 16:22:28 GMT 32.066254 -94.086357 26,200 30 337 -3136
2021-01-17 16:22:21 GMT 32.056290 -94.093193 26,425 30 357 -320
2021-01-17 16:22:16 GMT 32.051125 -94.096779 26,575 30 363 -2752
2021-01-17 16:22:10 GMT 32.041161 -94.103676 26,825 30 369 -1536
2021-01-17 16:22:07 GMT 32.036411 -94.106979 26,900 30 375 -960
2021-01-17 16:22:04 GMT 32.031326 -94.110535 26,950 31 379 -704
2021-01-17 16:22:00 GMT 32.025925 -94.114433 27,000 31 385 -640
2021-01-17 16:21:56 GMT 32.020386 -94.118393 26,925 31 452 -64
2021-01-17 16:21:52 GMT 32.014755 -94.122452 27,025 31 399 128
2021-01-17 16:21:49 GMT 32.008713 -94.126823 27,000 31 408 576
2021-01-17 16:21:46 GMT 32.003860 -94.130310 26,975 31 417 960
2021-01-17 16:21:42 GMT 31.997223 -94.135033 26,900 31 423 1024
2021-01-17 16:21:38 GMT 31.992462 -94.138443 26,875 31 433 256
2021-01-17 16:21:33 GMT 31.981667 -94.146164 26,925 31 452 -64
2021-01-17 16:21:29 GMT 31.973892 -94.151825 27,000 31 452 -128
2021-01-17 16:21:25 GMT 31.967102 -94.156731 27,000 30 451 64
2021-01-17 16:21:18 GMT 31.955273 -94.165222 27,000 31 452 -64
2021-01-17 16:21:12 GMT 31.943773 -94.173294 27,000 30 451 64
2021-01-17 16:21:07 GMT 31.935516 -94.179031 27,000 30 450 64
2021-01-17 16:21:03 GMT 31.928284 -94.183975 27,000 30 451 0
2021-01-17 16:20:57 GMT 31.917480 -94.191391 27,000 30 451 0
2021-01-17 16:20:51 GMT 31.905600 -94.199692 27,000 31 451 64
2021-01-17 16:20:46 GMT 31.899176 -94.204285 27,000 31 452 0
2021-01-17 16:20:40 GMT 31.887724 -94.212585 27,000 31 452 0
2021-01-17 16:20:33 GMT 31.873077 -94.223038 27,000 30 452 0
2021-01-17 16:20:28 GMT 31.866962 -94.227272 27,000 30 451 128
2021-01-17 16:20:25 GMT 31.858658 -94.232979 27,000 30 451 128
2021-01-17 16:20:20 GMT 31.849274 -94.239403 26,975 30 451 -128
2021-01-17 16:20:16 GMT 31.842087 -94.244347 27,000 30 450 -192
2021-01-17 16:20:10 GMT 31.832703 -94.250832 27,000 30 451 -64
2021-01-17 16:20:07 GMT 31.828400 -94.253853 27,000 30 451 64
2021-01-17 16:20:04 GMT 31.821621 -94.258659 27,000 31 451 0
2021-01-17 16:19:59 GMT 31.812309 -94.265327 27,000 31 451 -64
2021-01-17 16:19:47 GMT 31.792648 -94.279343 27,000 30 451 64
2021-01-17 16:19:40 GMT 31.779739 -94.288292 27,000 30 449 -64
2021-01-17 16:19:37 GMT 31.775021 -94.291451 27,000 30 449 -64
2021-01-17 16:19:33 GMT 31.768204 -94.296143 27,000 30 450 0
2021-01-17 16:19:27 GMT 31.756668 -94.304054 27,000 30 450 0
2021-01-17 16:19:24 GMT 31.748795 -94.309601 27,000 31 450 0
2021-01-17 16:19:17 GMT 31.738083 -94.317253 27,000 31 451 0
2021-01-17 16:19:13 GMT 31.730988 -94.322365 27,000 31 451 64
2021-01-17 16:19:06 GMT 31.717762 -94.331688 27,000 30 449 -64
2021-01-17 16:18:58 GMT 31.704123 -94.341141 27,000 30 448 -64
2021-01-17 16:18:55 GMT 31.699839 -94.344048 27,000 30 448 64
2021-01-17 16:18:44 GMT 31.680817 -94.357101 27,000 30 448 -64
2021-01-17 16:18:41 GMT 31.671907 -94.363327 27,000 31 447 -64
2021-01-17 16:18:35 GMT 31.663742 -94.369110 27,000 31 447 64
2021-01-17 16:18:30 GMT 31.654219 -94.375961 27,000 31 446 -64
2021-01-17 16:18:27 GMT 31.648911 -94.379723 27,000 31 445 -128
2021-01-17 16:18:24 GMT 31.644699 -94.382736 27,000 31 444 -64
2021-01-17 16:18:20 GMT 31.635132 -94.389366 27,000 30 442 0
2021-01-17 16:18:17 GMT 31.630554 -94.392540 27,000 30 441 0
2021-01-17 16:18:14 GMT 31.625610 -94.395927 27,000 30 440 0
2021-01-17 16:18:03 GMT 31.607666 -94.408157 27,000 30 438 192
2021-01-17 16:17:54 GMT 31.589905 -94.420540 26,975 31 436 64
2021-01-17 16:17:43 GMT 31.572985 -94.432602 26,925 30 435 704
2021-01-17 16:17:35 GMT 31.556717 -94.443863 26,800 30 433 768
2021-01-17 16:17:32 GMT 31.554272 -94.445564 26,775 30 434 768
2021-01-17 16:17:27 GMT 31.542494 -94.453583 26,700 30 433 704
2021-01-17 16:17:22 GMT 31.533829 -94.459480 26,625 30 433 768
2021-01-17 16:17:17 GMT 31.525873 -94.465012 26,575 30 434 832
2021-01-17 16:17:13 GMT 31.520691 -94.468636 26,525 31 434 832
2021-01-17 16:17:10 GMT 31.515539 -94.472260 26,475 31 434 768
2021-01-17 16:17:07 GMT 31.511396 -94.475174 26,450 31 434 832
2021-01-17 16:17:03 GMT 31.503479 -94.480804 26,400 31 433 768
2021-01-17 16:17:00 GMT 31.499014 -94.483963 26,375 31 434 832
2021-01-17 16:16:57 GMT 31.492123 -94.488792 26,325 29 431 832
2021-01-17 16:16:53 GMT 31.487234 -94.492035 26,250 29 432 768
2021-01-17 16:16:50 GMT 31.482010 -94.495506 26,225 29 431 768
2021-01-17 16:16:47 GMT 31.475052 -94.500031 26,175 29 431 768
2021-01-17 16:16:43 GMT 31.466629 -94.505470 26,125 29 431 704
2021-01-17 16:16:40 GMT 31.463837 -94.507301 26,050 29 431 704
2021-01-17 16:16:34 GMT 31.452026 -94.515114 26,025 29 431 832
2021-01-17 16:16:29 GMT 31.442276 -94.521629 25,950 29 432 832
2021-01-17 16:16:26 GMT 31.439844 -94.523239 25,925 29 432 832
2021-01-17 16:16:22 GMT 31.430466 -94.529488 25,850 29 431 704
2021-01-17 16:16:19 GMT 31.426987 -94.531807 25,825 29 431 704
2021-01-17 16:16:13 GMT 31.417236 -94.538162 25,750 29 430 768
2021-01-17 16:16:08 GMT 31.408173 -94.544029 25,700 28 430 832
2021-01-17 16:16:05 GMT 31.401169 -94.548500 25,625 28 430 768
2021-01-17 16:15:58 GMT 31.390314 -94.555481 25,550 29 430 704
2021-01-17 16:15:54 GMT 31.383377 -94.560043 25,500 29 431 768
2021-01-17 16:15:48 GMT 31.372904 -94.566910 25,425 29 431 768
2021-01-17 16:15:45 GMT 31.366665 -94.571083 25,400 29 431 768
2021-01-17 16:15:37 GMT 31.353836 -94.579628 25,300 29 431 704
2021-01-17 16:15:33 GMT 31.347904 -94.583549 25,250 29 430 704
2021-01-17 16:15:28 GMT 31.337429 -94.590363 25,175 29 430 832
2021-01-17 16:15:23 GMT 31.329748 -94.595360 25,125 28 430 768
2021-01-17 16:15:16 GMT 31.317181 -94.603439 25,025 28 430 768
2021-01-17 16:15:11 GMT 31.309158 -94.608604 24,950 29 431 768
2021-01-17 16:15:08 GMT 31.304214 -94.611778 24,925 29 431 832
2021-01-17 16:15:05 GMT 31.298630 -94.615387 24,875 29 432 896
2021-01-17 16:15:02 GMT 31.293045 -94.619049 24,825 29 432 832
2021-01-17 16:14:58 GMT 31.280502 -94.627289 24,775 29 432 832
2021-01-17 16:14:55 GMT 31.280502 -94.627289 24,725 29 432 768
2021-01-17 16:14:52 GMT 31.273544 -94.631920 24,675 29 433 832
2021-01-17 16:14:48 GMT 31.266253 -94.636780 24,625 29 432 832
2021-01-17 16:14:44 GMT 31.262421 -94.639351 24,600 29 432 768
2021-01-17 16:14:41 GMT 31.256836 -94.643013 24,550 29 432 768
2021-01-17 16:14:35 GMT 31.244934 -94.650719 24,450 28 431 768
2021-01-17 16:14:31 GMT 31.237930 -94.655190 24,400 28 430 704
2021-01-17 16:14:26 GMT 31.227800 -94.661667 24,350 28 430 768
2021-01-17 16:14:20 GMT 31.220119 -94.666611 24,275 29 430 832
2021-01-17 16:14:14 GMT 31.208294 -94.674355 24,175 29 430 1024
2021-01-17 16:14:09 GMT 31.199615 -94.680069 24,100 29 431 576
2021-01-17 16:14:06 GMT 31.192657 -94.684700 24,075 29 429 384
2021-01-17 16:14:03 GMT 31.189911 -94.686531 24,075 29 429 512
2021-01-17 16:13:59 GMT 31.181580 -94.691971 24,025 29 428 832
2021-01-17 16:13:55 GMT 31.171875 -94.698273 23,950 29 427 704
2021-01-17 16:13:52 GMT 31.171875 -94.698273 23,950 29 427 896
2021-01-17 16:13:49 GMT 31.166677 -94.701653 23,900 28 427 896
2021-01-17 16:13:45 GMT 31.156946 -94.707863 23,825 28 427 896
2021-01-17 16:13:42 GMT 31.153502 -94.710114 23,775 28 427 896
2021-01-17 16:13:38 GMT 31.147264 -94.714127 23,725 29 427 896
2021-01-17 16:13:34 GMT 31.137222 -94.720619 23,650 29 427 768
2021-01-17 16:13:31 GMT 31.135487 -94.721756 23,625 29 427 768
2021-01-17 16:13:28 GMT 31.130310 -94.725143 23,600 29 426 832
2021-01-17 16:13:24 GMT 31.121010 -94.731209 23,475 29 427 1216
2021-01-17 16:13:21 GMT 31.116865 -94.733902 23,450 29 427 1600
2021-01-17 16:13:16 GMT 31.109278 -94.738899 23,350 29 428 1728
2021-01-17 16:13:12 GMT 31.102707 -94.743187 23,225 29 429 960
2021-01-17 16:13:06 GMT 31.090565 -94.751038 23,125 29 428 1280
2021-01-17 16:13:01 GMT 31.083252 -94.755791 23,000 29 428 1792
2021-01-17 16:12:56 GMT 31.073898 -94.761856 22,850 29 431 1344
2021-01-17 16:12:51 GMT 31.065857 -94.767044 22,750 29 431 1088
2021-01-17 16:12:45 GMT 31.055044 -94.774109 22,625 29 431 1216
2021-01-17 16:12:42 GMT 31.046997 -94.779320 22,525 29 432 1344
2021-01-17 16:12:38 GMT 31.042475 -94.782295 22,475 29 431 1408
2021-01-17 16:12:34 GMT 31.035492 -94.786797 22,375 28 431 1024
2021-01-17 16:12:28 GMT 31.025986 -94.792892 22,200 29 432 1472
2021-01-17 16:12:24 GMT 31.018295 -94.797852 22,175 29 432 1664
2021-01-17 16:12:18 GMT 31.008165 -94.804489 21,925 29 433 1664
2021-01-17 16:12:14 GMT 31.000484 -94.809540 21,900 29 434 1024
2021-01-17 16:12:10 GMT 30.991699 -94.815247 21,800 29 434 832
2021-01-17 16:12:06 GMT 30.985727 -94.819153 21,750 29 433 1024
2021-01-17 16:12:03 GMT 30.982237 -94.821404 21,625 29 433 1024
2021-01-17 16:11:58 GMT 30.972794 -94.827576 21,625 29 432 896
2021-01-17 16:11:53 GMT 30.964733 -94.832779 21,525 29 431 1344
2021-01-17 16:11:49 GMT 30.954620 -94.839317 21,400 29 431 1280
2021-01-17 16:11:44 GMT 30.946930 -94.844269 21,300 28 430 1664
2021-01-17 16:11:37 GMT 30.936447 -94.851006 21,150 29 431 1472
2021-01-17 16:11:34 GMT 30.929489 -94.855530 21,075 29 431 1216
2021-01-17 16:11:29 GMT 30.920425 -94.861450 20,950 29 431 1344
2021-01-17 16:11:26 GMT 30.917295 -94.863480 20,900 29 431 1280
2021-01-17 16:11:23 GMT 30.910313 -94.867989 20,825 29 430 1280
2021-01-17 16:11:17 GMT 30.899839 -94.874741 20,700 28 429 1408
2021-01-17 16:11:13 GMT 30.892902 -94.879250 20,600 28 429 1408
2021-01-17 16:11:09 GMT 30.887318 -94.882820 20,375 28 429 1472
2021-01-17 16:11:05 GMT 30.880692 -94.887032 20,025 28 429 1472
2021-01-17 16:11:00 GMT 30.871954 -94.892593 20,300 29 429 1344
2021-01-17 16:10:56 GMT 30.861877 -94.899147 20,075 29 429 1344
2021-01-17 16:10:51 GMT 30.855988 -94.903030 20,100 29 429 1280
2021-01-17 16:10:45 GMT 30.844908 -94.910233 19,950 28 426 1152
2021-01-17 16:10:39 GMT 30.835510 -94.916328 19,875 29 427 1280
2021-01-17 16:10:35 GMT 30.826492 -94.922089 19,725 28 426 1280
2021-01-17 16:10:31 GMT 30.810879 -94.932091 19,600 29 426 1024
2021-01-17 16:10:25 GMT 30.810879 -94.932091 19,550 29 426 1024
2021-01-17 16:10:22 GMT 30.804337 -94.936310 19,500 29 425 768
2021-01-17 16:10:19 GMT 30.800903 -94.938568 19,475 29 424 768
2021-01-17 16:10:12 GMT 30.788952 -94.946373 19,325 29 421 832
2021-01-17 16:10:09 GMT 30.780806 -94.951706 19,300 29 419 896
2021-01-17 16:10:01 GMT 30.769260 -94.959175 19,050 28 417 1472
2021-01-17 16:09:58 GMT 30.764511 -94.962196 19,100 28 417 1472
2021-01-17 16:09:53 GMT 30.754316 -94.968674 18,950 28 417 1536
2021-01-17 16:09:50 GMT 30.750595 -94.970993 18,900 28 417 1472
2021-01-17 16:09:45 GMT 30.741468 -94.976860 18,775 29 416 1344
2021-01-17 16:09:40 GMT 30.733704 -94.981812 18,700 29 416 1408
2021-01-17 16:09:37 GMT 30.728666 -94.985100 18,600 29 416 1408
2021-01-17 16:09:31 GMT 30.718277 -94.991943 18,450 29 416 1408
2021-01-17 16:09:28 GMT 30.714249 -94.994576 18,400 29 415 1408
2021-01-17 16:09:18 GMT 30.697803 -95.005203 18,175 28 413 1344
2021-01-17 16:09:11 GMT 30.683697 -95.014107 17,975 28 412 1344
2021-01-17 16:09:08 GMT 30.679647 -95.016685 17,925 28 411 1216
2021-01-17 16:08:58 GMT 30.663300 -95.027107 17,725 29 410 1344
2021-01-17 16:08:51 GMT 30.651018 -95.035034 17,675 29 409 1216
2021-01-17 16:08:48 GMT 30.645401 -95.038689 17,475 29 408 1344
2021-01-17 16:08:43 GMT 30.639147 -95.042725 17,400 29 407 1280
2021-01-17 16:08:39 GMT 30.629883 -95.048660 17,275 28 406 1344
2021-01-17 16:08:36 GMT 30.627594 -95.050156 17,250 28 406 1600
2021-01-17 16:08:32 GMT 30.618988 -95.055595 17,100 28 405 1536
2021-01-17 16:08:26 GMT 30.611115 -95.060600 16,975 28 405 1664
2021-01-17 16:08:18 GMT 30.596226 -95.069809 16,700 27 403 1344
2021-01-17 16:08:15 GMT 30.591570 -95.072609 16,675 27 402 1280
2021-01-17 16:08:08 GMT 30.580257 -95.079201 16,525 25 400 1856
2021-01-17 16:08:05 GMT 30.576954 -95.081123 16,475 25 400 1856
2021-01-17 16:07:59 GMT 30.564560 -95.087959 16,250 25 399 1792
2021-01-17 16:07:56 GMT 30.559542 -95.090683 16,150 25 399 1856
2021-01-17 16:07:52 GMT 30.552521 -95.094536 16,025 25 399 1600
2021-01-17 16:07:45 GMT 30.542086 -95.100128 15,875 24 398 1600
2021-01-17 16:07:42 GMT 30.536732 -95.102982 15,775 24 398 1600
2021-01-17 16:07:38 GMT 30.530411 -95.106438 15,675 24 396 1536
2021-01-17 16:07:35 GMT 30.523727 -95.109985 15,575 24 396 1536
2021-01-17 16:07:27 GMT 30.511734 -95.116402 15,400 24 394 1216
2021-01-17 16:07:24 GMT 30.507751 -95.118553 15,375 24 393 1024
2021-01-17 16:07:21 GMT 30.502794 -95.121223 15,325 25 393 1024
2021-01-17 16:07:18 GMT 30.490273 -95.127975 15,225 25 391 1344
2021-01-17 16:07:14 GMT 30.490273 -95.127975 15,175 25 390 1152
2021-01-17 16:07:07 GMT 30.479507 -95.133904 14,850 25 388 1984
2021-01-17 16:07:04 GMT 30.473980 -95.136932 14,800 24 388 1856
2021-01-17 16:07:01 GMT 30.467789 -95.140259 14,725 24 387 2240
2021-01-17 16:06:54 GMT 30.457306 -95.145805 14,525 24 388 1664
2021-01-17 16:06:50 GMT 30.451401 -95.148926 14,425 24 387 1664
2021-01-17 16:06:43 GMT 30.439133 -95.155495 14,200 25 386 1664
2021-01-17 16:06:39 GMT 30.433525 -95.158524 14,100 25 385 1792
2021-01-17 16:06:36 GMT 30.428650 -95.161148 13,800 25 385 1920
2021-01-17 16:06:32 GMT 30.422195 -95.164650 13,875 25 385 2048
2021-01-17 16:06:26 GMT 30.413956 -95.169174 13,700 25 384 1984
2021-01-17 16:06:22 GMT 30.404800 -95.174133 13,500 24 384 2304
2021-01-17 16:06:18 GMT 30.398392 -95.177521 13,350 24 384 2304
2021-01-17 16:06:11 GMT 30.388596 -95.182747 13,125 24 383 2176
2021-01-17 16:06:00 GMT 30.371841 -95.191742 12,775 25 383 1920
2021-01-17 16:05:51 GMT 30.354853 -95.201035 12,425 25 382 1792
2021-01-17 16:05:44 GMT 30.343866 -95.206917 12,250 24 380 1472
2021-01-17 16:05:39 GMT 30.337536 -95.210213 12,150 24 378 1344
2021-01-17 16:05:30 GMT 30.321259 -95.218666 11,900 24 373 1728
2021-01-17 16:05:23 GMT 30.311560 -95.223892 11,750 25 371 1408
2021-01-17 16:05:18 GMT 30.304459 -95.227821 11,650 25 368 1216
2021-01-17 16:05:12 GMT 30.294067 -95.233643 11,500 25 362 2048
2021-01-17 16:05:09 GMT 30.288980 -95.236526 11,400 25 362 2048
2021-01-17 16:05:01 GMT 30.279205 -95.241905 11,150 25 360 2240
2021-01-17 16:04:57 GMT 30.272549 -95.245529 10,925 25 359 1600
2021-01-17 16:04:53 GMT 30.266235 -95.248932 10,850 25 359 1600
2021-01-17 16:04:47 GMT 30.256622 -95.254211 10,700 25 356 1344
2021-01-17 16:04:42 GMT 30.250671 -95.257446 10,600 25 352 1280
2021-01-17 16:04:37 GMT 30.241545 -95.262451 10,475 25 347 1152
2021-01-17 16:04:33 GMT 30.237213 -95.264824 10,425 24 341 832
2021-01-17 16:04:26 GMT 30.226135 -95.270691 10,325 24 336 704
2021-01-17 16:04:20 GMT 30.218781 -95.274483 10,250 24 328 512
2021-01-17 16:04:16 GMT 30.211807 -95.278069 10,200 24 320 384
2021-01-17 16:04:11 GMT 30.206406 -95.280869 10,175 24 313 640
2021-01-17 16:04:05 GMT 30.197784 -95.285355 10,075 24 304 1472
2021-01-17 16:04:01 GMT 30.190651 -95.289658 8,500 24 280 3168
2021-01-17 16:04:00 GMT 30.189470 -95.290291 8,500 24 280 3168
2021-01-17 16:03:59 GMT 30.188290 -95.290916 8,500 24 280 3168
2021-01-17 16:03:57 GMT 30.185940 -95.292183 8,500 24 280 3168
2021-01-17 16:03:56 GMT 30.184759 -95.292801 8,500 24 280 3168
2021-01-17 16:03:55 GMT 30.183580 -95.293427 8,500 24 280 3168
2021-01-17 16:03:54 GMT 30.182400 -95.294060 8,500 24 280 3168
2021-01-17 16:03:53 GMT 30.181219 -95.294693 8,500 24 280 3168
2021-01-17 16:03:51 GMT 30.178860 -95.295937 8,500 24 280 3168
2021-01-17 16:03:50 GMT 30.177679 -95.296570 8,500 24 280 3168
2021-01-17 16:03:49 GMT 30.176500 -95.297203 8,500 24 280 3168
2021-01-17 16:03:48 GMT 30.175320 -95.297829 8,500 24 280 3168
2021-01-17 16:03:46 GMT 30.172960 -95.299080 8,500 24 280 3168
2021-01-17 16:03:45 GMT 30.171780 -95.299713 8,500 24 280 3168
2021-01-17 16:03:44 GMT 30.170601 -95.300339 8,500 24 280 3168
2021-01-17 16:03:42 GMT 30.168249 -95.301598 8,500 24 280 3168
2021-01-17 16:03:41 GMT 30.167070 -95.302223 8,500 24 280 3168
2021-01-17 16:03:40 GMT 30.164709 -95.303482 8,500 24 280 3168
2021-01-17 16:03:38 GMT 30.163530 -95.304108 8,500 24 280 3168
2021-01-17 16:03:37 GMT 30.161169 -95.305359 8,500 24 280 3168
2021-01-17 16:03:35 GMT 30.159990 -95.305992 8,500 24 280 3168
2021-01-17 16:03:34 GMT 30.158810 -95.306618 8,500 24 280 3168
2021-01-17 16:03:33 GMT 30.156450 -95.307869 8,500 24 280 3168
2021-01-17 16:03:31 GMT 30.155270 -95.308502 8,500 24 280 3168
2021-01-17 16:03:30 GMT 30.153999 -95.309242 8,100 24 278 3168
2021-01-17 16:03:29 GMT 30.151661 -95.310478 8,100 24 278 3168
2021-01-17 16:03:27 GMT 30.150480 -95.311096 8,100 24 278 3168
2021-01-17 16:03:26 GMT 30.149269 -95.311813 8,100 24 277 3168
2021-01-17 16:03:24 GMT 30.146931 -95.313042 8,100 24 277 3168
2021-01-17 16:03:23 GMT 30.145769 -95.313660 8,100 24 277 3168
2021-01-17 16:03:22 GMT 30.144600 -95.314270 8,100 24 277 3168
2021-01-17 16:03:20 GMT 30.142250 -95.315468 7,800 24 276 3168
2021-01-17 16:03:19 GMT 30.141090 -95.316093 7,800 24 276 3744
2021-01-17 16:03:18 GMT 30.139919 -95.316704 7,800 24 276 3744
2021-01-17 16:03:16 GMT 30.137440 -95.318001 7,300 24 273 3744
2021-01-17 16:03:15 GMT 30.136290 -95.318611 7,300 24 273 3744
2021-01-17 16:03:14 GMT 30.135139 -95.319221 7,300 24 273 3744
2021-01-17 16:03:13 GMT 30.133989 -95.319832 7,300 24 273 3744
2021-01-17 16:03:11 GMT 30.131689 -95.321060 7,300 24 273 3744
2021-01-17 16:03:10 GMT 30.130541 -95.321678 7,300 24 273 3744
2021-01-17 16:03:09 GMT 30.129391 -95.322289 7,300 24 273 3744
2021-01-17 16:03:08 GMT 30.128241 -95.322899 7,300 24 273 3744
2021-01-17 16:03:06 GMT 30.125940 -95.324203 6,800 24 273 3744
2021-01-17 16:03:05 GMT 30.124790 -95.324806 6,800 24 273 3744
2021-01-17 16:03:04 GMT 30.123640 -95.325409 6,800 24 273 3744
2021-01-17 16:03:02 GMT 30.121220 -95.326790 6,800 24 269 3744
2021-01-17 16:03:01 GMT 30.120081 -95.327377 6,800 24 269 3744
2021-01-17 16:03:00 GMT 30.118940 -95.327980 6,800 24 269 3744
2021-01-17 16:02:59 GMT 30.117809 -95.328568 6,800 24 269 3744
2021-01-17 16:02:57 GMT 30.115370 -95.329781 6,600 24 266 3744
2021-01-17 16:02:56 GMT 30.114250 -95.330368 6,600 24 266 3744
2021-01-17 16:02:55 GMT 30.113119 -95.330971 6,600 24 266 3744
2021-01-17 16:02:53 GMT 30.110889 -95.332123 6,200 24 267 3744
2021-01-17 16:02:52 GMT 30.109760 -95.332718 6,200 24 267 3744
2021-01-17 16:02:51 GMT 30.108641 -95.333313 6,200 24 267 3744
2021-01-17 16:02:50 GMT 30.106291 -95.334648 6,200 24 264 3744
2021-01-17 16:02:48 GMT 30.105169 -95.335243 6,200 24 264 3744
2021-01-17 16:02:47 GMT 30.104059 -95.335823 6,200 24 264 3744
2021-01-17 16:02:45 GMT 30.100491 -95.337646 5,600 24 260 3744
2021-01-17 16:02:42 GMT 30.098301 -95.338799 5,600 24 260 3744
2021-01-17 16:02:41 GMT 30.097210 -95.339378 5,600 24 260 3744
2021-01-17 16:02:40 GMT 30.095020 -95.340584 5,600 24 259 3744
2021-01-17 16:02:38 GMT 30.093920 -95.341164 5,600 24 259 3744
2021-01-17 16:02:37 GMT 30.092831 -95.341728 5,600 24 259 3744
2021-01-17 16:02:36 GMT 30.091730 -95.342300 5,600 24 259 3744
2021-01-17 16:02:35 GMT 30.089390 -95.343536 5,400 24 256 3744
2021-01-17 16:02:33 GMT 30.088310 -95.344109 5,400 24 256 3744
2021-01-17 16:02:32 GMT 30.087231 -95.344673 5,400 24 256 3744
2021-01-17 16:02:31 GMT 30.084980 -95.345879 4,900 24 254 3744
2021-01-17 16:02:29 GMT 30.083910 -95.346443 4,900 24 254 3744
2021-01-17 16:02:28 GMT 30.082830 -95.347000 4,900 24 254 3744
2021-01-17 16:02:27 GMT 30.080450 -95.348282 4,900 24 249 3744
2021-01-17 16:02:25 GMT 30.079390 -95.348824 4,900 24 249 3744
2021-01-17 16:02:24 GMT 30.078341 -95.349373 4,900 24 249 3744
2021-01-17 16:02:23 GMT 30.076229 -95.350449 4,900 24 249 3744
2021-01-17 16:02:21 GMT 30.074989 -95.351212 4,100 23 245 3744
2021-01-17 16:02:20 GMT 30.073950 -95.351738 4,100 23 245 3744
2021-01-17 16:02:18 GMT 30.071871 -95.352791 4,100 23 245 3904
2021-01-17 16:02:17 GMT 30.070570 -95.353462 4,100 23 240 3904
2021-01-17 16:02:16 GMT 30.069550 -95.353981 4,100 23 240 3904
2021-01-17 16:02:14 GMT 30.067511 -95.355019 4,100 23 240 3904
2021-01-17 16:02:13 GMT 30.066490 -95.355537 4,100 23 240 3904
2021-01-17 16:02:12 GMT 30.065331 -95.356354 4,100 22 234 3904
2021-01-17 16:02:10 GMT 30.063320 -95.357307 4,100 22 234 3904
2021-01-17 16:02:09 GMT 30.062321 -95.357788 4,100 22 234 3904
2021-01-17 16:02:08 GMT 30.061319 -95.358269 4,100 22 234 3904
2021-01-17 16:02:06 GMT 30.059361 -95.359337 3,100 22 237 3904
2021-01-17 16:02:05 GMT 30.058340 -95.359818 3,100 22 237 3904
2021-01-17 16:02:04 GMT 30.057320 -95.360313 3,100 22 237 3904
2021-01-17 16:02:03 GMT 30.055519 -95.361221 3,100 23 248 3904
2021-01-17 16:02:01 GMT 30.054461 -95.361740 3,100 23 248 3904
2021-01-17 16:02:00 GMT 30.052340 -95.362778 3,100 23 248 3904
2021-01-17 16:01:59 GMT 30.051531 -95.363350 3,100 22 258 3904
2021-01-17 16:01:57 GMT 30.050289 -95.363831 3,100 23 252 3904
2021-01-17 16:01:55 GMT 30.046980 -95.365410 3,100 25 247 3904
2021-01-17 16:01:53 GMT 30.045950 -95.365967 3,100 26 248 3904
2021-01-17 16:01:52 GMT 30.044861 -95.366524 3,100 26 247 3904
2021-01-17 16:01:50 GMT 30.042879 -95.367653 2,750 27 255 416
2021-01-17 16:01:49 GMT 30.041840 -95.368217 2,750 28 258 416
2021-01-17 16:01:47 GMT 30.039650 -95.369461 2,500 28 253 416
2021-01-17 16:01:46 GMT 30.037560 -95.370697 2,500 28 252 416
2021-01-17 16:01:45 GMT 30.036489 -95.371262 2,200 29 252 416
2021-01-17 16:01:43 GMT 30.035490 -95.371872 2,200 28 254 416
2021-01-17 16:01:42 GMT 30.034439 -95.372467 2,200 28 255 416
2021-01-17 16:01:40 GMT 30.032370 -95.373650 2,200 27 257 416
2021-01-17 16:01:39 GMT 30.031349 -95.374283 1,700 25 257 416
2021-01-17 16:01:38 GMT 30.030319 -95.374893 1,700 23 258 416
2021-01-17 16:01:36 GMT 30.028179 -95.375999 1,700 19 257 416
2021-01-17 16:01:35 GMT 30.027100 -95.376518 1,700 16 255 416
2021-01-17 16:01:34 GMT 30.026020 -95.376953 1,700 14 256 416
2021-01-17 16:01:32 GMT 30.023769 -95.377693 1,700 9 252 416
2021-01-17 16:01:31 GMT 30.022631 -95.377998 1,700 7 249 416
2021-01-17 16:01:30 GMT 30.021589 -95.378281 1,700 4 253 416
2021-01-17 16:01:28 GMT 30.019300 -95.378548 1,600 0 247 416
2021-01-17 16:01:27 GMT 30.018190 -95.378601 1,600 358 246 416
2021-01-17 16:01:26 GMT 30.017031 -95.378593 1,600 356 241 416
2021-01-17 16:01:25 GMT 30.015940 -95.378517 1,625 355 240 416
2021-01-17 16:01:24 GMT 30.013800 -95.378349 1,525 350 236 416
2021-01-17 16:01:22 GMT 30.012690 -95.378197 1,525 347 230 416
2021-01-17 16:01:21 GMT 30.011690 -95.377998 1,450 344 229 416
2021-01-17 16:01:19 GMT 30.009630 -95.377388 1,450 340 219 -1728
2021-01-17 16:01:18 GMT 30.008690 -95.377052 1,300 337 218 -1728
2021-01-17 16:01:17 GMT 30.007740 -95.376678 1,300 334 215 -1728
2021-01-17 16:01:15 GMT 30.005980 -95.375748 1,300 330 214 384
2021-01-17 16:01:14 GMT 30.005079 -95.375320 1,300 325 210 384
2021-01-17 16:01:13 GMT 30.004240 -95.374763 1,300 322 207 384
2021-01-17 16:01:12 GMT 30.003450 -95.374161 1,300 320 205 384
2021-01-17 16:01:10 GMT 30.001989 -95.372810 1,200 317 197 384
2021-01-17 16:01:09 GMT 30.001301 -95.372063 1,200 315 191 384
2021-01-17 16:01:07 GMT 29.999981 -95.370651 1,200 309 181 384
2021-01-17 16:01:06 GMT 29.999460 -95.369972 1,225 308 182 384
2021-01-17 16:01:05 GMT 29.998899 -95.369209 1,125 306 178 384
2021-01-17 16:01:03 GMT 29.997910 -95.367691 1,125 303 173 384
2021-01-17 16:01:02 GMT 29.997419 -95.366890 1,100 300 168 384
2021-01-17 16:01:01 GMT 29.997049 -95.366173 475 299 172 384
2021-01-17 16:00:59 GMT 29.996260 -95.364594 475 296 169 384
2021-01-17 16:00:58 GMT 29.995890 -95.363770 475 293 165 384
2021-01-17 16:00:57 GMT 29.995581 -95.363007 475 291 166 384
2021-01-17 16:00:55 GMT 29.995010 -95.361397 475 287 165 384
2021-01-17 16:00:54 GMT 29.994551 -95.359749 475 283 164 384
2021-01-17 16:00:52 GMT 29.994329 -95.358879 475 281 161 384
2021-01-17 16:00:51 GMT 29.994020 -95.357224 475 276 160 384
2021-01-17 16:00:49 GMT 29.993891 -95.356354 475 274 158 384
2021-01-17 16:00:48 GMT 29.993811 -95.355522 475 273 157 384
2021-01-17 16:00:47 GMT 29.993750 -95.354683 475 273 158 384
2021-01-17 16:00:45 GMT 29.993660 -95.353027 375 272 157 384
2021-01-17 16:00:44 GMT 29.993641 -95.352158 350 271 151 384
2021-01-17 16:00:43 GMT 29.993641 -95.351387 325 272 157 384
2021-01-17 16:00:41 GMT 29.993580 -95.349709 250 271 154 384
2021-01-17 16:00:40 GMT 29.993530 -95.348892 225 270 151 384
2021-01-17 16:00:38 GMT 29.993530 -95.347260 150 271 146 384
2021-01-17 16:00:37 GMT 29.993530 -95.346512 125 272 150 384
2021-01-17 16:00:36 GMT 29.993481 -95.345688 75 270 145 384
2021-01-17 16:00:35 GMT 29.993481 -95.344948 50 270 150 384
2021-01-17 16:00:33 GMT 29.993429 -95.343391 -25 269 150 384
2021-01-17 16:00:32 GMT 29.993469 -95.342621 -25 270 150 384
2021-01-17 16:00:31 GMT 29.993469 -95.341797 -50 270 147 384
2021-01-17 16:00:29 GMT 29.993450 -95.340271 -75 269 144 384
2021-01-17 16:00:28 GMT 29.993469 -95.339493 -100 270 139 384
2021-01-17 16:00:27 GMT 29.993481 -95.338737 -125 270 136 -672
2021-01-17 16:00:25 GMT 29.993460 -95.337318 -100 270 132 -672
2021-01-17 16:00:24 GMT 29.993469 -95.336578 -100 270 126 0
2021-01-17 16:00:23 GMT 29.993460 -95.335251 -100 270 119 0
2021-01-17 16:00:21 GMT 29.993460 -95.334610 0 270 115 0
2021-01-17 16:00:20 GMT 29.993441 -95.333992 0 269 111 0
2021-01-17 16:00:18 GMT 29.993441 -95.332809 0 269 102 0
2021-01-17 16:00:17 GMT 29.993450 -95.332268 0 269 99 0
2021-01-17 16:00:16 GMT 29.993420 -95.331718 0 268 93 0
2021-01-17 16:00:14 GMT 29.993450 -95.330742 0 269 85 0
2021-01-17 16:00:12 GMT 29.993450 -95.329857 0 269 77 0
2021-01-17 16:00:11 GMT 29.993481 -95.329437 0 270 71 0
2021-01-17 16:00:10 GMT 29.993481 -95.329018 0 271 63 0
2021-01-17 16:00:08 GMT 29.993460 -95.328308 0 271 50 0
2021-01-17 16:00:07 GMT 29.993441 -95.328018 0 270 45 0
2021-01-17 16:00:06 GMT 29.993441 -95.327759 0 270 41 0
2021-01-17 16:00:05 GMT 29.993441 -95.327232 0 270 24 0
2021-01-17 16:00:03 GMT 29.993450 -95.327072 0 272 22 0
2021-01-17 16:00:02 GMT 29.993450 -95.326912 0 274 17 0
2021-01-17 16:00:00 GMT 29.993420 -95.326752 0 266 17 0
2021-01-17 15:59:59 GMT 29.993429 -95.326637 0 269 16 0
2021-01-17 15:59:57 GMT 29.993401 -95.326469 0 253 16 0
2021-01-17 15:59:56 GMT 29.993420 -95.326393 0 257 16 0
2021-01-17 15:59:55 GMT 29.993429 -95.326233 0 258 16 0
2021-01-17 15:59:54 GMT 29.993460 -95.326172 0 269 16 0
2021-01-17 15:59:52 GMT 29.993481 -95.326118 0 278 19 0
2021-01-17 15:59:51 GMT 29.993460 -95.326012 0 281 17 0
2021-01-17 15:59:49 GMT 29.993429 -95.325844 0 294 15 0
2021-01-17 15:59:48 GMT 29.993420 -95.325737 0 310 14 0
2021-01-17 15:59:47 GMT 29.993410 -95.325684 0 322 14 0
2021-01-17 15:59:46 GMT 29.993361 -95.325630 0 324 15 0
2021-01-17 15:59:44 GMT 29.993259 -95.325508 0 344 14 0
2021-01-17 15:59:43 GMT 29.993210 -95.325493 0 345 15 0
2021-01-17 15:59:41 GMT 29.993080 -95.325432 0 354 17 0
2021-01-17 15:59:40 GMT 29.992990 -95.325417 0 356 15 0
2021-01-17 15:59:39 GMT 29.992910 -95.325409 0 0 15 0
2021-01-17 15:59:37 GMT 29.992809 -95.325409 0 359 17 0
2021-01-17 15:59:36 GMT 29.992710 -95.325409 0 358 15 0
2021-01-17 15:59:35 GMT 29.992630 -95.325417 0 357 14 0
2021-01-17 15:59:33 GMT 29.992510 -95.325432 0 356 17 0
2021-01-17 15:59:32 GMT 29.992439 -95.325401 0 1 16 0
2021-01-17 15:59:31 GMT 29.992359 -95.325409 0 2 15 0
2021-01-17 15:59:30 GMT 29.992189 -95.325409 0 24 11 0
2021-01-17 15:59:28 GMT 29.992140 -95.325401 0 35 11 0
2021-01-17 15:59:27 GMT 29.992121 -95.325439 0 27 13 0
2021-01-17 15:59:26 GMT 29.992029 -95.325500 0 39 12 0
2021-01-17 15:59:24 GMT 29.991970 -95.325531 0 51 12 0
2021-01-17 15:59:23 GMT 29.991899 -95.325539 0 74 13 0
2021-01-17 15:59:21 GMT 29.991859 -95.325699 0 79 10 0
2021-01-17 15:59:20 GMT 29.991831 -95.325729 0 87 11 0
2021-01-17 15:59:19 GMT 29.991819 -95.325798 0 87 12 0
2021-01-17 15:59:17 GMT 29.991831 -95.325897 0 84 16 0
2021-01-17 15:59:16 GMT 29.991800 -95.325958 0 92 18 0
2021-01-17 15:59:15 GMT 29.991810 -95.326080 0 92 17 0
2021-01-17 15:59:14 GMT 29.991800 -95.326187 0 91 22 0
2021-01-17 15:59:12 GMT 29.991810 -95.326302 0 90 23 0
2021-01-17 15:59:11 GMT 29.991810 -95.326439 0 88 21 0
2021-01-17 15:59:09 GMT 29.991810 -95.326660 0 88 22 0
2021-01-17 15:59:08 GMT 29.991800 -95.326767 0 90 23 0
2021-01-17 15:59:07 GMT 29.991819 -95.326889 0 85 23 0
2021-01-17 15:59:06 GMT 29.991779 -95.327042 0 93 20 0
2021-01-17 15:59:05 GMT 29.991800 -95.327301 0 95 17 0
2021-01-17 15:59:03 GMT 29.991840 -95.327454 0 87 21 0
2021-01-17 15:59:01 GMT 29.991819 -95.327583 0 93 19 0
2021-01-17 15:59:00 GMT 29.991819 -95.327682 0 92 20 0
2021-01-17 15:58:59 GMT 29.991840 -95.327782 0 86 21 0
2021-01-17 15:58:57 GMT 29.991831 -95.328003 0 84 22 0
2021-01-17 15:58:56 GMT 29.991810 -95.328117 0 87 21 0
2021-01-17 15:58:55 GMT 29.991810 -95.328232 0 88 21 0
2021-01-17 15:58:54 GMT 29.991810 -95.328362 0 89 19 0
2021-01-17 15:58:52 GMT 29.991791 -95.328568 0 96 20 0
2021-01-17 15:58:51 GMT 29.991810 -95.328659 0 93 20 0
2021-01-17 15:58:50 GMT 29.991831 -95.328773 0 88 20 0
2021-01-17 15:58:49 GMT 29.991819 -95.328873 0 88 19 0
2021-01-17 15:58:48 GMT 29.991800 -95.329063 0 95 22 0
2021-01-17 15:58:46 GMT 29.991760 -95.329193 0 105 21 0
2021-01-17 15:58:45 GMT 29.991779 -95.329300 0 103 20 0
2021-01-17 15:58:44 GMT 29.991819 -95.329407 0 95 18 0
2021-01-17 15:58:42 GMT 29.991819 -95.329613 0 91 16 0
2021-01-17 15:58:41 GMT 29.991831 -95.329712 0 83 14 0
2021-01-17 15:58:40 GMT 29.991840 -95.329750 0 73 18 0
2021-01-17 15:58:39 GMT 29.991831 -95.329842 0 66 17 0
2021-01-17 15:58:37 GMT 29.991760 -95.330009 0 55 15 0
2021-01-17 15:58:36 GMT 29.991730 -95.330132 0 32 12 0
2021-01-17 15:58:34 GMT 29.991650 -95.330238 0 12 14 0
2021-01-17 15:58:33 GMT 29.991590 -95.330238 0 15 14 0
2021-01-17 15:58:32 GMT 29.991470 -95.330307 0 2 16 0
2021-01-17 15:58:30 GMT 29.991409 -95.330307 0 0 18 0
2021-01-17 15:58:29 GMT 29.991341 -95.330322 0 358 19 0
2021-01-17 15:58:28 GMT 29.991249 -95.330338 0 353 19 0
2021-01-17 15:58:26 GMT 29.991079 -95.330330 0 355 19 0
2021-01-17 15:58:25 GMT 29.990990 -95.330307 0 356 20 0
2021-01-17 15:58:24 GMT 29.990900 -95.330292 0 0 20 0
2021-01-17 15:58:22 GMT 29.990709 -95.330269 0 9 20 0
2021-01-17 15:58:21 GMT 29.990601 -95.330292 0 7 18 0
2021-01-17 15:58:20 GMT 29.990530 -95.330330 0 358 19 0
2021-01-17 15:58:18 GMT 29.990339 -95.330360 0 350 19 0
2021-01-17 15:58:17 GMT 29.990271 -95.330330 0 353 20 0
2021-01-17 15:58:15 GMT 29.990080 -95.330299 0 355 20 0
2021-01-17 15:58:14 GMT 29.989981 -95.330276 0 0 19 0
2021-01-17 15:58:13 GMT 29.989901 -95.330292 0 359 20 0
2021-01-17 15:58:11 GMT 29.989719 -95.330292 0 358 21 0
2021-01-17 15:58:10 GMT 29.989611 -95.330276 0 1 19 0
2021-01-17 15:58:08 GMT 29.989441 -95.330292 0 359 20 0
2021-01-17 15:58:07 GMT 29.989260 -95.330261 0 4 22 0
2021-01-17 15:58:05 GMT 29.989170 -95.330276 0 1 21 0
2021-01-17 15:58:04 GMT 29.989071 -95.330269 0 5 21 0
2021-01-17 15:58:02 GMT 29.988871 -95.330254 0 9 20 0
2021-01-17 15:58:01 GMT 29.988750 -95.330292 0 2 18 0
2021-01-17 15:58:00 GMT 29.988670 -95.330360 0 352 18 0
2021-01-17 15:57:58 GMT 29.988510 -95.330322 0 356 19 0
2021-01-17 15:57:57 GMT 29.988430 -95.330307 0 354 20 0
2021-01-17 15:57:56 GMT 29.988239 -95.330307 0 351 20 0
2021-01-17 15:57:54 GMT 29.988131 -95.330322 0 348 19 0
2021-01-17 15:57:53 GMT 29.988050 -95.330261 0 358 19 0
2021-01-17 15:57:51 GMT 29.987881 -95.330231 0 3 18 0
2021-01-17 15:57:50 GMT 29.987810 -95.330208 0 8 20 0
2021-01-17 15:57:49 GMT 29.987720 -95.330231 0 5 21 0
2021-01-17 15:57:48 GMT 29.987600 -95.330276 0 354 17 0
2021-01-17 15:57:46 GMT 29.987440 -95.330238 0 358 19 0
2021-01-17 15:57:45 GMT 29.987360 -95.330208 0 9 19 0
2021-01-17 15:57:44 GMT 29.987280 -95.330231 0 5 19 0
2021-01-17 15:57:43 GMT 29.987209 -95.330269 0 1 20 0
2021-01-17 15:57:41 GMT 29.986980 -95.330353 0 342 18 0
2021-01-17 15:57:40 GMT 29.986879 -95.330299 0 347 15 0
2021-01-17 15:57:39 GMT 29.986820 -95.330261 0 354 16 0
2021-01-17 15:57:38 GMT 29.986691 -95.330223 0 2 20 0
2021-01-17 15:57:36 GMT 29.986610 -95.330223 0 3 22 0
2021-01-17 15:57:35 GMT 29.986500 -95.330223 0 5 20 0
2021-01-17 15:57:34 GMT 29.986401 -95.330231 0 5 20 0
2021-01-17 15:57:33 GMT 29.986191 -95.330269 0 357 17 0
2021-01-17 15:57:31 GMT 29.986111 -95.330276 0 353 17 0
2021-01-17 15:57:30 GMT 29.986071 -95.330254 0 0 21 0
2021-01-17 15:57:29 GMT 29.985950 -95.330276 0 352 18 0
2021-01-17 15:57:27 GMT 29.985781 -95.330231 0 2 17 0
2021-01-17 15:57:26 GMT 29.985720 -95.330223 0 5 20 0
2021-01-17 15:57:25 GMT 29.985630 -95.330238 0 2 20 0
2021-01-17 15:57:24 GMT 29.985430 -95.330231 0 8 17 0
2021-01-17 15:57:22 GMT 29.985371 -95.330238 0 6 19 0
2021-01-17 15:57:21 GMT 29.985291 -95.330276 0 358 19 0
2021-01-17 15:57:19 GMT 29.985109 -95.330269 0 0 18 0
2021-01-17 15:57:18 GMT 29.985010 -95.330269 0 1 17 0
2021-01-17 15:57:17 GMT 29.984940 -95.330276 0 358 18 0
2021-01-17 15:57:15 GMT 29.984770 -95.330261 0 4 17 0
2021-01-17 15:57:14 GMT 29.984680 -95.330269 0 3 17 0
2021-01-17 15:57:13 GMT 29.984591 -95.330276 0 0 15 0
2021-01-17 15:57:11 GMT 29.984480 -95.330269 0 3 19 0
2021-01-17 15:57:10 GMT 29.984280 -95.330299 0 352 15 0
2021-01-17 15:57:08 GMT 29.984221 -95.330276 0 358 16 0
2021-01-17 15:57:07 GMT 29.984140 -95.330276 0 355 15 0
2021-01-17 15:57:06 GMT 29.984070 -95.330276 0 352 15 0
2021-01-17 15:57:04 GMT 29.983940 -95.330269 0 355 20 0
2021-01-17 15:57:03 GMT 29.983850 -95.330238 0 3 18 0
2021-01-17 15:57:01 GMT 29.983669 -95.330261 0 2 15 0
2021-01-17 15:57:00 GMT 29.983580 -95.330269 0 6 12 0
2021-01-17 15:56:59 GMT 29.983480 -95.330254 0 25 13 0
2021-01-17 15:56:57 GMT 29.983410 -95.330276 0 28 11 0
2021-01-17 15:56:56 GMT 29.983339 -95.330292 0 37 10 0
2021-01-17 15:56:54 GMT 29.983259 -95.330353 0 52 10 0
2021-01-17 15:56:53 GMT 29.983210 -95.330353 0 60 11 0
2021-01-17 15:56:51 GMT 29.983141 -95.330452 0 71 10 0
2021-01-17 15:56:50 GMT 29.983110 -95.330513 0 77 9 0
2021-01-17 15:56:49 GMT 29.983110 -95.330559 0 70 8 0
2021-01-17 15:56:48 GMT 29.983089 -95.330620 0 70 7 0
2021-01-17 15:56:46 GMT 29.983080 -95.330711 0 70 5 0
2021-01-17 15:56:45 GMT 29.983030 -95.330719 0 81 5 0
2021-01-17 15:56:44 GMT 29.983040 -95.330780 0 80 1 0
2021-01-17 15:56:42 GMT 29.983040 -95.330788 0 77 2 0
2021-01-17 15:56:41 GMT 29.983049 -95.330818 0 77 2 0
2021-01-17 15:56:40 GMT 29.983040 -95.330811 0 79 2 0
2021-01-17 15:56:39 GMT 29.983049 -95.330841 0 78 2 0
2021-01-17 15:56:37 GMT 29.983030 -95.330833 0 77 0 0
2021-01-17 15:56:36 GMT 29.983030 -95.330849 0 77 0 0
2021-01-17 15:56:35 GMT 29.983009 -95.330841 0 80 1 0
2021-01-17 15:56:33 GMT 29.983000 -95.330841 0 73 3 0
2021-01-17 15:56:32 GMT 29.983021 -95.330833 0 71 0 0
2021-01-17 15:56:30 GMT 29.983021 -95.330818 0 73 0 0
2021-01-17 15:56:29 GMT 29.983040 -95.330818 0 73 1 0
2021-01-17 15:56:28 GMT 29.983030 -95.330833 0 73 0 0
2021-01-17 15:56:27 GMT 29.983049 -95.330841 0 75 2 0
2021-01-17 15:56:26 GMT 29.983021 -95.330841 0 77 1 0
2021-01-17 15:56:24 GMT 29.983030 -95.330849 0 77 1 0
2021-01-17 15:56:23 GMT 29.983030 -95.330856 0 81 3 0
2021-01-17 15:56:22 GMT 29.983030 -95.330841 0 84 1 0
2021-01-17 15:56:21 GMT 29.983009 -95.330833 0 80 2 0
2021-01-17 15:56:19 GMT 29.983049 -95.330856 0 83 4 0
2021-01-17 15:56:18 GMT 29.983040 -95.330841 0 87 3 0
2021-01-17 15:56:16 GMT 29.983040 -95.330841 0 91 3 0
2021-01-17 15:56:14 GMT 29.983021 -95.330811 0 95 5 0
2021-01-17 15:56:13 GMT 29.983009 -95.330833 0 104 6 0
2021-01-17 15:56:11 GMT 29.983009 -95.330872 0 99 11 0
2021-01-17 15:56:10 GMT 29.983021 -95.330879 0 96 14 0
2021-01-17 15:56:09 GMT 29.983049 -95.330994 0 89 12 0
2021-01-17 15:56:07 GMT 29.983030 -95.331093 0 92 15 0
2021-01-17 15:56:06 GMT 29.983030 -95.331169 0 94 15 0
2021-01-17 15:56:05 GMT 29.983040 -95.331238 0 92 17 0
2021-01-17 15:56:03 GMT 29.983030 -95.331421 0 98 16 0
2021-01-17 15:56:02 GMT 29.983040 -95.331512 0 96 17 0
2021-01-17 15:56:00 GMT 29.983070 -95.331673 0 89 20 0
2021-01-17 15:55:59 GMT 29.983070 -95.331779 0 88 19 0
2021-01-17 15:55:57 GMT 29.983061 -95.331993 0 88 18 0
2021-01-17 15:55:56 GMT 29.983070 -95.332100 0 85 17 0
2021-01-17 15:55:55 GMT 29.983030 -95.332283 0 92 17 0
2021-01-17 15:55:53 GMT 29.983000 -95.332382 0 102 17 0
2021-01-17 15:55:52 GMT 29.983040 -95.332443 0 92 19 0
2021-01-17 15:55:51 GMT 29.983061 -95.332573 0 89 17 0
2021-01-17 15:55:50 GMT 29.983080 -95.332649 0 83 19 0
2021-01-17 15:55:48 GMT 29.983049 -95.332848 0 90 18 0
2021-01-17 15:55:47 GMT 29.983061 -95.332939 0 87 18 0
2021-01-17 15:55:46 GMT 29.983030 -95.333130 0 93 19 0
2021-01-17 15:55:44 GMT 29.983009 -95.333221 0 101 20 0
2021-01-17 15:55:43 GMT 29.983049 -95.333328 0 92 19 0
2021-01-17 15:55:42 GMT 29.983080 -95.333542 0 86 19 0
2021-01-17 15:55:40 GMT 29.983070 -95.333603 0 86 22 0
2021-01-17 15:55:39 GMT 29.983089 -95.333740 0 81 21 0
2021-01-17 15:55:37 GMT 29.983040 -95.333946 0 88 21 0
2021-01-17 15:55:36 GMT 29.983040 -95.334061 0 87 20 0
2021-01-17 15:55:35 GMT 29.983021 -95.334198 0 91 18 0
2021-01-17 15:55:33 GMT 29.983030 -95.334381 0 87 19 0
2021-01-17 15:55:32 GMT 29.983040 -95.334473 0 85 20 0
2021-01-17 15:55:31 GMT 29.983000 -95.334587 0 93 19 0
2021-01-17 15:55:30 GMT 29.982990 -95.334686 0 96 19 0
2021-01-17 15:55:29 GMT 29.983021 -95.334908 0 95 17 0
2021-01-17 15:55:27 GMT 29.983049 -95.334991 0 89 19 0
2021-01-17 15:55:26 GMT 29.983061 -95.335091 0 87 19 0
2021-01-17 15:55:25 GMT 29.983049 -95.335312 0 89 16 0
2021-01-17 15:55:24 GMT 29.983040 -95.335388 0 91 17 0
2021-01-17 15:55:22 GMT 29.983040 -95.335480 0 93 18 0
2021-01-17 15:55:21 GMT 29.983030 -95.335602 0 101 15 0
2021-01-17 15:55:20 GMT 29.983049 -95.335663 0 98 17 0
2021-01-17 15:55:18 GMT 29.983061 -95.335861 0 98 16 0
2021-01-17 15:55:17 GMT 29.983089 -95.335938 0 93 16 0
2021-01-17 15:55:16 GMT 29.983101 -95.336113 0 91 17 0
2021-01-17 15:55:15 GMT 29.983101 -95.336166 0 90 20 0
2021-01-17 15:55:13 GMT 29.983120 -95.336304 0 88 18 0
2021-01-17 15:55:12 GMT 29.983120 -95.336357 0 86 21 0
2021-01-17 15:55:10 GMT 29.983089 -95.336594 0 95 21 0
2021-01-17 15:55:09 GMT 29.983101 -95.336708 0 97 20 0
2021-01-17 15:55:08 GMT 29.983101 -95.336800 0 98 21 0
2021-01-17 15:55:07 GMT 29.983160 -95.337029 0 87 21 0
2021-01-17 15:55:05 GMT 29.983130 -95.337242 0 89 21 0
2021-01-17 15:55:03 GMT 29.983141 -95.337341 0 87 21 0
2021-01-17 15:55:02 GMT 29.983120 -95.337479 0 90 19 0
2021-01-17 15:55:00 GMT 29.983110 -95.337692 0 95 20 0
2021-01-17 15:54:59 GMT 29.983120 -95.337784 0 95 20 0
2021-01-17 15:54:58 GMT 29.983160 -95.337921 0 87 17 0
2021-01-17 15:54:56 GMT 29.983160 -95.338097 0 87 20 0
2021-01-17 15:54:55 GMT 29.983120 -95.338158 0 93 25 0
2021-01-17 15:54:54 GMT 29.983160 -95.338470 0 93 18 0
2021-01-17 15:54:52 GMT 29.983160 -95.338577 0 93 16 0
2021-01-17 15:54:51 GMT 29.983160 -95.338654 0 92 18 0
2021-01-17 15:54:50 GMT 29.983179 -95.338753 0 87 17 0
2021-01-17 15:54:49 GMT 29.983191 -95.338913 0 80 20 0
2021-01-17 15:54:47 GMT 29.983160 -95.339020 0 86 20 0
2021-01-17 15:54:46 GMT 29.983141 -95.339142 0 91 18 0
2021-01-17 15:54:45 GMT 29.983110 -95.339249 0 104 17 0
2021-01-17 15:54:44 GMT 29.983120 -95.339340 0 108 17 0
2021-01-17 15:54:42 GMT 29.983200 -95.339539 0 95 15 0
2021-01-17 15:54:41 GMT 29.983179 -95.339607 0 102 16 0
2021-01-17 15:54:40 GMT 29.983219 -95.339767 0 103 17 0
2021-01-17 15:54:38 GMT 29.983250 -95.339851 0 99 17 0
2021-01-17 15:54:37 GMT 29.983231 -95.339943 0 112 18 0
2021-01-17 15:54:36 GMT 29.983290 -95.340149 0 124 16 0
2021-01-17 15:54:34 GMT 29.983379 -95.340240 0 114 12 0
2021-01-17 15:54:33 GMT 29.983410 -95.340248 0 104 17 0
2021-01-17 15:54:32 GMT 29.983400 -95.340347 0 118 16 0
2021-01-17 15:54:30 GMT 29.983450 -95.340492 0 120 17 0
2021-01-17 15:54:29 GMT 29.983480 -95.340569 0 126 18 0
2021-01-17 15:54:27 GMT 29.983629 -95.340752 0 103 13 0
2021-01-17 15:54:26 GMT 29.983650 -95.340820 0 101 13 0
2021-01-17 15:54:25 GMT 29.983669 -95.340874 0 99 15 0
2021-01-17 15:54:24 GMT 29.983650 -95.340958 0 113 14 0
2021-01-17 15:54:22 GMT 29.983730 -95.341087 0 96 13 0
2021-01-17 15:54:21 GMT 29.983770 -95.341148 0 88 14 0
2021-01-17 15:54:20 GMT 29.983730 -95.341209 0 98 15 0
2021-01-17 15:54:18 GMT 29.983770 -95.341393 0 85 10 0
2021-01-17 15:54:17 GMT 29.983770 -95.341431 0 90 11 0
2021-01-17 15:54:16 GMT 29.983770 -95.341507 0 92 8 0
2021-01-17 15:54:15 GMT 29.983749 -95.341568 0 100 7 0
2021-01-17 15:54:13 GMT 29.983770 -95.341698 0 132 3 0
2021-01-17 15:54:12 GMT 29.983749 -95.341782 0 149 3 0
2021-01-17 15:54:10 GMT 29.983810 -95.341858 0 150 3 0
2021-01-17 15:54:09 GMT 29.983761 -95.341843 0 152 2 0
2021-01-17 15:54:06 GMT 29.983749 -95.341873 0 152 0 0
2021-01-17 15:54:05 GMT 29.983749 -95.341911 0 152 1 0
2021-01-17 15:54:03 GMT 29.983749 -95.341873 0 153 1 0
2021-01-17 15:54:02 GMT 29.983749 -95.341858 0 153 1 0
2021-01-17 15:54:01 GMT 29.983761 -95.341888 0 153 0 0
2021-01-17 15:54:00 GMT 29.983749 -95.341881 0 153 0 0
2021-01-17 15:53:57 GMT 29.983740 -95.341881 0 153 0 0
2021-01-17 15:53:55 GMT 29.983730 -95.341904 0 148 2 0
2021-01-17 15:53:54 GMT 29.983730 -95.341888 0 145 2 0
2021-01-17 15:53:53 GMT 29.983700 -95.341881 0 143 3 0
2021-01-17 15:53:52 GMT 29.983749 -95.341850 0 143 0 0
2021-01-17 15:53:50 GMT 29.983721 -95.341858 0 143 1 0
2021-01-17 15:53:49 GMT 29.983770 -95.341873 0 143 1 0
2021-01-17 15:53:47 GMT 29.983761 -95.341881 0 143 0 0
2021-01-17 15:53:46 GMT 29.983761 -95.341888 0 143 0 0
2021-01-17 15:53:45 GMT 29.983761 -95.341881 0 143 0 0
2021-01-17 15:53:43 GMT 29.983761 -95.341873 0 143 0 0
2021-01-17 15:53:41 GMT 29.983749 -95.341911 0 143 0 0
2021-01-17 15:53:40 GMT 29.983749 -95.341919 0 143 0 0
2021-01-17 15:53:38 GMT 29.983730 -95.341919 0 143 0 0
2021-01-17 15:53:36 GMT 29.983740 -95.341927 0 143 0 0
2021-01-17 15:53:35 GMT 29.983740 -95.341942 0 143 0 0
2021-01-17 15:53:34 GMT 29.983730 -95.341919 0 143 0 0
2021-01-17 15:53:32 GMT 29.983721 -95.341911 0 143 0 0
2021-01-17 15:53:27 GMT 29.983730 -95.341927 0 143 0 0
2021-01-17 15:53:26 GMT 29.983740 -95.341942 0 143 0 0
2021-01-17 15:53:25 GMT 29.983730 -95.341942 0 143 0 0
2021-01-17 15:53:22 GMT 29.983730 -95.341919 0 143 0 0
2021-01-17 15:53:21 GMT 29.983730 -95.341942 0 143 0 0
2021-01-17 15:53:18 GMT 29.983749 -95.341927 0 143 0 0
2021-01-17 15:53:17 GMT 29.983730 -95.341911 0 143 0 0
2021-01-17 15:53:16 GMT 29.983740 -95.341942 0 143 0 0
2021-01-17 15:53:14 GMT 29.983740 -95.341919 0 143 0 0
2021-01-17 15:53:13 GMT 29.983749 -95.341911 0 143 0 0
2021-01-17 15:53:12 GMT 29.983740 -95.341919 0 143 0 0
2021-01-17 15:53:11 GMT 29.983721 -95.341927 0 143 0 0
2021-01-17 15:53:09 GMT 29.983761 -95.341927 0 143 1 0
2021-01-17 15:53:08 GMT 29.983740 -95.341919 0 146 0 0
2021-01-17 15:53:07 GMT 29.983730 -95.341919 0 148 0 0
2021-01-17 15:53:05 GMT 29.983730 -95.341919 0 148 0 0
2021-01-17 15:53:04 GMT 29.983740 -95.341911 0 148 0 0
2021-01-17 15:53:03 GMT 29.983740 -95.341888 0 148 0 0
2021-01-17 15:53:01 GMT 29.983730 -95.341942 0 148 0 0
2021-01-17 15:53:00 GMT 29.983730 -95.341927 0 148 0 0
2021-01-17 15:52:58 GMT 29.983730 -95.341904 0 148 0 0
2021-01-17 15:52:57 GMT 29.983730 -95.341911 0 148 0 0
2021-01-17 15:52:56 GMT 29.983740 -95.341904 0 148 0 0
2021-01-17 15:52:55 GMT 29.983740 -95.341911 0 148 0 0
2021-01-17 15:52:53 GMT 29.983749 -95.341888 0 148 0 0
2021-01-17 15:52:52 GMT 29.983749 -95.341881 0 148 0 0
2021-01-17 15:52:51 GMT 29.983749 -95.341911 0 149 0 0
2021-01-17 15:52:50 GMT 29.983721 -95.341911 0 149 0 0
2021-01-17 15:52:48 GMT 29.983721 -95.341904 0 149 0 0
2021-01-17 15:52:47 GMT 29.983730 -95.341888 0 149 1 0
2021-01-17 15:52:46 GMT 29.983740 -95.341873 0 151 2 0
2021-01-17 15:52:44 GMT 29.983721 -95.341881 0 153 3 -32
2021-01-17 15:52:42 GMT 29.983721 -95.341957 0 153 0 -32
2021-01-17 15:52:41 GMT 29.983709 -95.342010 0 153 1 -32
2021-01-17 15:52:40 GMT 29.983730 -95.342003 0 153 1 -32
2021-01-17 15:52:38 GMT 29.983730 -95.341942 0 153 0 -32
2021-01-17 15:52:37 GMT 29.983749 -95.341942 0 153 0 -32
2021-01-17 15:52:36 GMT 29.983740 -95.341942 0 153 1 -32
2021-01-17 15:52:35 GMT 29.983721 -95.342018 0 153 2 -32
2021-01-17 15:52:33 GMT 29.983730 -95.341942 0 151 0 -32
2021-01-17 15:52:32 GMT 29.983721 -95.341957 0 151 0 -32
2021-01-17 15:52:30 GMT 29.983730 -95.341980 0 151 1 -32
2021-01-17 15:52:29 GMT 29.983730 -95.341927 0 151 0 -32
2021-01-17 15:52:28 GMT 29.983749 -95.341942 0 151 1 -32
2021-01-17 15:52:26 GMT 29.983730 -95.341942 0 151 0 0
2021-01-17 15:52:25 GMT 29.983761 -95.341942 0 151 2 0
2021-01-17 15:52:24 GMT 29.983730 -95.341949 0 148 2 0
2021-01-17 15:52:22 GMT 29.983740 -95.341919 0 143 1 0
2021-01-17 15:52:21 GMT 29.983681 -95.341957 0 141 3 0
2021-01-17 15:52:20 GMT 29.983641 -95.341911 0 141 4 0
2021-01-17 15:52:19 GMT 29.983669 -95.341881 0 129 4 0
2021-01-17 15:52:17 GMT 29.983681 -95.341881 0 129 5 0
2021-01-17 15:52:16 GMT 29.983749 -95.341873 0 129 0 0
2021-01-17 15:52:13 GMT 29.983749 -95.341873 0 128 0 0
2021-01-17 15:52:12 GMT 29.983761 -95.341873 0 128 0 0
2021-01-17 15:52:11 GMT 29.983761 -95.341858 0 128 0 0
2021-01-17 15:52:08 GMT 29.983749 -95.341873 0 128 0 0
2021-01-17 15:52:07 GMT 29.983761 -95.341858 0 128 0 0
2021-01-17 15:52:06 GMT 29.983730 -95.341858 0 128 1 0
2021-01-17 15:52:04 GMT 29.983721 -95.341858 0 124 3 0
2021-01-17 15:52:02 GMT 29.983749 -95.341873 0 124 0 0
2021-01-17 15:52:00 GMT 29.983761 -95.341873 0 124 0 0
2021-01-17 15:51:58 GMT 29.983749 -95.341873 0 125 0 0
2021-01-17 15:51:57 GMT 29.983740 -95.341873 0 125 0 0
2021-01-17 15:51:55 GMT 29.983740 -95.341858 0 125 0 0
2021-01-17 15:51:53 GMT 29.983749 -95.341850 0 125 2 0
2021-01-17 15:51:52 GMT 29.983770 -95.341873 0 127 2 0
2021-01-17 15:51:51 GMT 29.983761 -95.341881 0 131 2 0
2021-01-17 15:51:50 GMT 29.983721 -95.341911 0 133 2
2021-01-17 15:51:49 GMT 29.983730 -95.341888 0 131 3
2021-01-17 15:51:47 GMT 29.983681 -95.341850 0 130 4
2021-01-17 15:51:46 GMT 29.983690 -95.341873 0 110 5
2021-01-17 15:51:45 GMT 29.983730 -95.341904 0 99 2
2021-01-17 15:51:43 GMT 29.983761 -95.341911 0 99 4
2021-01-17 15:51:42 GMT 29.983740 -95.341942 0 101 4
2021-01-17 15:51:41 GMT 29.983770 -95.341919 0 95 8
2021-01-17 15:51:40 GMT 29.983770 -95.342003 0 96 9
2021-01-17 15:51:38 GMT 29.983749 -95.342079 0 94 6
2021-01-17 15:51:37 GMT 29.983780 -95.342087 0 85 7
2021-01-17 15:51:36 GMT 29.983801 -95.342133 0 85 12
2021-01-17 15:51:35 GMT 29.983740 -95.342178 0 98 14
2021-01-17 15:51:33 GMT 29.983749 -95.342270 0 94 11
2021-01-17 15:51:32 GMT 29.983780 -95.342300 0 88 15
2021-01-17 15:51:31 GMT 29.983770 -95.342407 0 92 11
2021-01-17 15:51:29 GMT 29.983749 -95.342529 0 102 9
2021-01-17 15:51:28 GMT 29.983770 -95.342583 0 99 8
2021-01-17 15:51:26 GMT 29.983780 -95.342651 0 81 12
2021-01-17 15:51:25 GMT 29.983829 -95.342728 0 66 12
2021-01-17 15:51:23 GMT 29.983770 -95.342842 0 86 12
2021-01-17 15:51:22 GMT 29.983709 -95.342888 0 99 14
2021-01-17 15:51:20 GMT 29.983721 -95.343010 0 99 15
2021-01-17 15:51:19 GMT 29.983709 -95.343063 0 103 18
2021-01-17 15:51:18 GMT 29.983740 -95.343201 0 109 13
2021-01-17 15:51:17 GMT 29.983780 -95.343262 0 88 13
2021-01-17 15:51:16 GMT 29.983829 -95.343353 0 79 12
2021-01-17 15:51:14 GMT 29.983810 -95.343452 0 80 14
2021-01-17 15:51:13 GMT 29.983770 -95.343513 0 91 16
2021-01-17 15:51:12 GMT 29.983770 -95.343613 0 89 16
2021-01-17 15:51:11 GMT 29.983761 -95.343712 0 95 13
2021-01-17 15:51:09 GMT 29.983789 -95.343849 0 81 13
2021-01-17 15:51:08 GMT 29.983770 -95.343903 0 90 15
2021-01-17 15:51:07 GMT 29.983780 -95.343964 0 88 18
2021-01-17 15:51:05 GMT 29.983780 -95.344162 0 90 18
2021-01-17 15:51:04 GMT 29.983789 -95.344261 0 89 18
2021-01-17 15:51:03 GMT 29.983789 -95.344353 0 89 18
2021-01-17 15:51:01 GMT 29.983780 -95.344543 0 90 18
2021-01-17 15:51:00 GMT 29.983780 -95.344643 0 90 18
2021-01-17 15:50:59 GMT 29.983780 -95.344742 0 90 18
2021-01-17 15:50:58 GMT 29.983810 -95.344940 0 84 17
2021-01-17 15:50:56 GMT 29.983780 -95.345032 0 87 18
2021-01-17 15:50:55 GMT 29.983740 -95.345131 0 96 17
2021-01-17 15:50:54 GMT 29.983761 -95.345299 0 95 18
2021-01-17 15:50:52 GMT 29.983749 -95.345398 0 98 18
2021-01-17 15:50:51 GMT 29.983770 -95.345497 0 97 17
2021-01-17 15:50:50 GMT 29.983810 -95.345688 0 93 15
2021-01-17 15:50:48 GMT 29.983810 -95.345749 0 92 17
2021-01-17 15:50:47 GMT 29.983829 -95.345848 0 87 16
2021-01-17 15:50:46 GMT 29.983810 -95.345940 0 93 17
2021-01-17 15:50:44 GMT 29.983829 -95.346123 0 88 17
2021-01-17 15:50:43 GMT 29.983770 -95.346230 0 101 15
2021-01-17 15:50:42 GMT 29.983761 -95.346321 0 105 15
2021-01-17 15:50:40 GMT 29.983829 -95.346474 0 95 14
2021-01-17 15:50:39 GMT 29.983860 -95.346527 0 91 15
2021-01-17 15:50:38 GMT 29.983850 -95.346626 0 92 13
2021-01-17 15:50:36 GMT 29.983891 -95.346764 0 78 17
2021-01-17 15:50:35 GMT 29.983879 -95.346870 0 76 14
2021-01-17 15:50:34 GMT 29.983841 -95.346962 0 88 11
2021-01-17 15:50:32 GMT 29.983789 -95.347099 0 101 10
2021-01-17 15:50:31 GMT 29.983789 -95.347137 0 99 11
2021-01-17 15:50:29 GMT 29.983841 -95.347260 0 93 8
2021-01-17 15:50:28 GMT 29.983829 -95.347282 0 91 11
2021-01-17 15:50:27 GMT 29.983841 -95.347382 0 87 7
2021-01-17 15:50:25 GMT 29.983850 -95.347481 0 86 6
2021-01-17 15:50:24 GMT 29.983850 -95.347488 0 87 8
2021-01-17 15:50:22 GMT 29.983829 -95.347588 0 102 7
2021-01-17 15:50:21 GMT 29.983810 -95.347633 0 105 7
2021-01-17 15:50:20 GMT 29.983850 -95.347672 0 106 6
2021-01-17 15:50:18 GMT 29.983829 -95.347717 0 184 6
2021-01-17 15:50:17 GMT 29.983780 -95.347801 0 184 6
2021-01-17 15:50:16 GMT 29.983789 -95.347862 0 200 8
2021-01-17 15:50:14 GMT 29.983789 -95.347900 0 200 12

Making use of Plane Finder data

You are free to use the raw flight data, aircraft information and images provided in this report for your own purposes provided the data is correctly attributed to Plane Finder. We ask that you please credit Plane Finder and link to planefinder.net in close proximity to the content.

Optionally one of the following logos (no smaller then 150x24px) can be used and must link to planefinder.net

Embedding the Plane Finder map

You are welcome to embed the Plane Finder playback map on your website to offer visitors a more interactive experience. We suggest using the following HTML code:

<iframe src="//planefinder.net/data/report/UA4327-N27152-7700-squawk-2021-01-17/map" width="800" height="600" seamless="seamless"></iframe>

Where our data comes from

Plane Finder has a global network of data feeds and antenna radars that receive data broadcast directly from aircraft. The primary technologies used are ADS-B and MLAT. We also show feeds from the FAA and a FLARM glider feed.

Click here to find out more about the Plane Finder network.

How we collect our data